sensor_id;sensor_type;location;lat;lon;timestamp;pressure;altitude;pressure_sealevel;temperature;humidity
64853;BME280;56050;55.558;-4.644;2023-08-06T00:00:12;101567.19;;;15.88;63.89
64853;BME280;56050;55.558;-4.644;2023-08-06T00:02:37;101567.59;;;15.90;63.92
64853;BME280;56050;55.558;-4.644;2023-08-06T00:05:03;101581.56;;;15.88;63.69
64853;BME280;56050;55.558;-4.644;2023-08-06T00:07:28;101563.34;;;15.85;64.05
64853;BME280;56050;55.558;-4.644;2023-08-06T00:09:54;101572.28;;;15.82;64.11
64853;BME280;56050;55.558;-4.644;2023-08-06T00:12:19;101575.44;;;15.81;63.85
64853;BME280;56050;55.558;-4.644;2023-08-06T00:14:45;101578.50;;;15.83;64.10
64853;BME280;56050;55.558;-4.644;2023-08-06T00:17:11;101571.53;;;15.82;64.02
64853;BME280;56050;55.558;-4.644;2023-08-06T00:19:36;101576.19;;;15.81;64.04
64853;BME280;56050;55.558;-4.644;2023-08-06T00:22:02;101580.09;;;15.80;64.13
64853;BME280;56050;55.558;-4.644;2023-08-06T00:24:27;101581.66;;;15.78;64.14
64853;BME280;56050;55.558;-4.644;2023-08-06T00:26:53;101582.44;;;15.75;64.06
64853;BME280;56050;55.558;-4.644;2023-08-06T00:29:18;101588.69;;;15.72;63.77
64853;BME280;56050;55.558;-4.644;2023-08-06T00:31:44;101587.56;;;15.66;64.03
64853;BME280;56050;55.558;-4.644;2023-08-06T00:34:09;101589.97;;;15.57;63.82
64853;BME280;56050;55.558;-4.644;2023-08-06T00:36:35;101585.00;;;15.48;63.97
64853;BME280;56050;55.558;-4.644;2023-08-06T00:39:00;101587.31;;;15.43;64.01
64853;BME280;56050;55.558;-4.644;2023-08-06T00:41:26;101582.69;;;15.40;64.03
64853;BME280;56050;55.558;-4.644;2023-08-06T00:43:51;101593.56;;;15.36;64.36
64853;BME280;56050;55.558;-4.644;2023-08-06T00:46:16;101594.38;;;15.29;64.07
64853;BME280;56050;55.558;-4.644;2023-08-06T00:48:42;101595.59;;;15.21;64.22
64853;BME280;56050;55.558;-4.644;2023-08-06T00:51:09;101597.19;;;15.15;64.31
64853;BME280;56050;55.558;-4.644;2023-08-06T00:53:35;101596.81;;;15.10;64.38
64853;BME280;56050;55.558;-4.644;2023-08-06T00:56:02;101599.16;;;15.04;64.57
64853;BME280;56050;55.558;-4.644;2023-08-06T00:58:27;101597.63;;;15.00;64.43
64853;BME280;56050;55.558;-4.644;2023-08-06T01:00:53;101598.41;;;14.97;64.58
64853;BME280;56050;55.558;-4.644;2023-08-06T01:03:18;101597.28;;;14.91;64.43
64853;BME280;56050;55.558;-4.644;2023-08-06T01:05:44;101598.84;;;14.85;64.75
64853;BME280;56050;55.558;-4.644;2023-08-06T01:13:42;101598.13;;;14.70;64.82
64853;BME280;56050;55.558;-4.644;2023-08-06T01:16:10;101595.41;;;14.66;64.64
64853;BME280;56050;55.558;-4.644;2023-08-06T01:18:36;101606.66;;;14.65;64.65
64853;BME280;56050;55.558;-4.644;2023-08-06T01:21:04;101602.81;;;14.62;64.47
64853;BME280;56050;55.558;-4.644;2023-08-06T01:23:29;101602.03;;;14.62;64.67
64853;BME280;56050;55.558;-4.644;2023-08-06T01:31:27;101614.06;;;14.54;64.92
64853;BME280;56050;55.558;-4.644;2023-08-06T01:33:53;101610.97;;;14.52;64.62
64853;BME280;56050;55.558;-4.644;2023-08-06T01:36:21;101620.25;;;14.51;64.77
64853;BME280;56050;55.558;-4.644;2023-08-06T01:38:48;101625.69;;;14.47;64.63
64853;BME280;56050;55.558;-4.644;2023-08-06T01:41:13;101632.66;;;14.45;64.57
64853;BME280;56050;55.558;-4.644;2023-08-06T01:43:39;101630.72;;;14.42;64.62
64853;BME280;56050;55.558;-4.644;2023-08-06T01:46:04;101631.50;;;14.39;64.69
64853;BME280;56050;55.558;-4.644;2023-08-06T01:48:30;101642.00;;;14.33;64.63
64853;BME280;56050;55.558;-4.644;2023-08-06T01:50:55;101640.41;;;14.29;64.55
64853;BME280;56050;55.558;-4.644;2023-08-06T01:53:20;101638.09;;;14.24;64.66
64853;BME280;56050;55.558;-4.644;2023-08-06T01:55:49;101645.06;;;14.18;64.67
64853;BME280;56050;55.558;-4.644;2023-08-06T01:58:14;101640.81;;;14.13;64.93
64853;BME280;56050;55.558;-4.644;2023-08-06T02:00:40;101648.56;;;14.11;64.98
64853;BME280;56050;55.558;-4.644;2023-08-06T02:03:06;101643.13;;;14.07;64.93
64853;BME280;56050;55.558;-4.644;2023-08-06T02:05:31;101647.75;;;14.03;64.81
64853;BME280;56050;55.558;-4.644;2023-08-06T02:07:56;101651.25;;;14.00;64.72
64853;BME280;56050;55.558;-4.644;2023-08-06T02:10:22;101654.72;;;13.97;64.86
64853;BME280;56050;55.558;-4.644;2023-08-06T02:12:47;101659.38;;;13.93;64.85
64853;BME280;56050;55.558;-4.644;2023-08-06T02:15:13;101653.94;;;13.90;64.79
64853;BME280;56050;55.558;-4.644;2023-08-06T02:17:38;101660.53;;;13.85;64.78
64853;BME280;56050;55.558;-4.644;2023-08-06T02:22:29;101658.59;;;13.75;64.92
64853;BME280;56050;55.558;-4.644;2023-08-06T02:24:54;101649.66;;;13.71;64.93
64853;BME280;56050;55.558;-4.644;2023-08-06T02:27:20;101649.66;;;13.68;64.89
64853;BME280;56050;55.558;-4.644;2023-08-06T02:29:45;101658.19;;;13.66;65.12
64853;BME280;56050;55.558;-4.644;2023-08-06T02:32:10;101651.97;;;13.66;65.09
64853;BME280;56050;55.558;-4.644;2023-08-06T02:34:36;101652.38;;;13.64;64.93
64853;BME280;56050;55.558;-4.644;2023-08-06T02:37:01;101656.63;;;13.65;65.10
64853;BME280;56050;55.558;-4.644;2023-08-06T02:39:27;101653.13;;;13.65;65.07
64853;BME280;56050;55.558;-4.644;2023-08-06T02:41:52;101655.09;;;13.64;64.92
64853;BME280;56050;55.558;-4.644;2023-08-06T02:44:17;101662.81;;;13.66;65.09
64853;BME280;56050;55.558;-4.644;2023-08-06T02:46:44;101657.78;;;13.64;65.08
64853;BME280;56050;55.558;-4.644;2023-08-06T02:49:10;101658.16;;;13.63;64.69
64853;BME280;56050;55.558;-4.644;2023-08-06T02:51:35;101662.03;;;13.58;64.77
64853;BME280;56050;55.558;-4.644;2023-08-06T02:54:00;101667.44;;;13.54;64.75
64853;BME280;56050;55.558;-4.644;2023-08-06T02:56:26;101663.56;;;13.52;64.87
64853;BME280;56050;55.558;-4.644;2023-08-06T02:58:51;101656.19;;;13.49;64.94
64853;BME280;56050;55.558;-4.644;2023-08-06T03:01:17;101655.81;;;13.47;64.96
64853;BME280;56050;55.558;-4.644;2023-08-06T03:03:42;101658.50;;;13.43;64.87
64853;BME280;56050;55.558;-4.644;2023-08-06T03:06:07;101664.66;;;13.40;64.97
64853;BME280;56050;55.558;-4.644;2023-08-06T03:08:33;101662.72;;;13.37;65.26
64853;BME280;56050;55.558;-4.644;2023-08-06T03:10:58;101660.41;;;13.36;65.09
64853;BME280;56050;55.558;-4.644;2023-08-06T03:13:24;101661.97;;;13.33;65.29
64853;BME280;56050;55.558;-4.644;2023-08-06T03:15:57;101669.28;;;13.33;65.09
64853;BME280;56050;55.558;-4.644;2023-08-06T03:18:23;101661.19;;;13.33;65.22
64853;BME280;56050;55.558;-4.644;2023-08-06T03:20:49;101665.41;;;13.34;65.14
64853;BME280;56050;55.558;-4.644;2023-08-06T03:23:14;101663.09;;;13.32;65.04
64853;BME280;56050;55.558;-4.644;2023-08-06T03:25:40;101659.63;;;13.32;65.18
64853;BME280;56050;55.558;-4.644;2023-08-06T03:28:05;101659.63;;;13.32;65.11
64853;BME280;56050;55.558;-4.644;2023-08-06T03:30:31;101666.59;;;13.33;65.27
64853;BME280;56050;55.558;-4.644;2023-08-06T03:32:56;101669.69;;;13.35;65.15
64853;BME280;56050;55.558;-4.644;2023-08-06T03:35:22;101664.66;;;13.37;65.32
64853;BME280;56050;55.558;-4.644;2023-08-06T03:37:47;101667.00;;;13.38;65.11
64853;BME280;56050;55.558;-4.644;2023-08-06T03:40:13;101664.66;;;13.37;65.18
64853;BME280;56050;55.558;-4.644;2023-08-06T03:42:39;101666.59;;;13.36;65.20
64853;BME280;56050;55.558;-4.644;2023-08-06T03:45:05;101653.81;;;13.37;65.12
64853;BME280;56050;55.558;-4.644;2023-08-06T03:47:30;101653.47;;;13.38;65.17
64853;BME280;56050;55.558;-4.644;2023-08-06T03:49:55;101655.78;;;13.40;65.21
64853;BME280;56050;55.558;-4.644;2023-08-06T03:52:21;101658.91;;;13.42;65.12
64853;BME280;56050;55.558;-4.644;2023-08-06T03:54:46;101660.81;;;13.41;64.91
64853;BME280;56050;55.558;-4.644;2023-08-06T03:57:12;101659.66;;;13.42;65.18
64853;BME280;56050;55.558;-4.644;2023-08-06T03:59:37;101664.69;;;13.44;65.07
64853;BME280;56050;55.558;-4.644;2023-08-06T04:02:03;101663.50;;;13.45;65.23
64853;BME280;56050;55.558;-4.644;2023-08-06T04:04:28;101664.28;;;13.45;65.03
64853;BME280;56050;55.558;-4.644;2023-08-06T04:06:54;101671.28;;;13.46;65.03
64853;BME280;56050;55.558;-4.644;2023-08-06T04:09:19;101669.34;;;13.47;65.19
64853;BME280;56050;55.558;-4.644;2023-08-06T04:11:45;101668.56;;;13.46;64.93
64853;BME280;56050;55.558;-4.644;2023-08-06T04:14:10;101672.84;;;13.47;65.17
64853;BME280;56050;55.558;-4.644;2023-08-06T04:16:36;101672.84;;;13.47;65.19
64853;BME280;56050;55.558;-4.644;2023-08-06T04:19:01;101672.06;;;13.47;65.04
64853;BME280;56050;55.558;-4.644;2023-08-06T04:21:26;101674.34;;;13.45;65.22
64853;BME280;56050;55.558;-4.644;2023-08-06T04:23:52;101669.72;;;13.45;65.00
64853;BME280;56050;55.558;-4.644;2023-08-06T04:26:17;101675.13;;;13.45;65.24
64853;BME280;56050;55.558;-4.644;2023-08-06T04:28:43;101674.75;;;13.43;65.10
64853;BME280;56050;55.558;-4.644;2023-08-06T04:31:08;101675.53;;;13.44;65.25
64853;BME280;56050;55.558;-4.644;2023-08-06T04:33:34;101674.75;;;13.43;65.09
64853;BME280;56050;55.558;-4.644;2023-08-06T04:35:59;101680.56;;;13.42;65.36
64853;BME280;56050;55.558;-4.644;2023-08-06T04:38:25;101681.31;;;13.42;65.23
64853;BME280;56050;55.558;-4.644;2023-08-06T04:40:52;101666.63;;;13.43;65.26
64853;BME280;56050;55.558;-4.644;2023-08-06T04:43:17;101682.47;;;13.45;65.44
64853;BME280;56050;55.558;-4.644;2023-08-06T04:45:49;101683.25;;;13.45;65.23
64853;BME280;56050;55.558;-4.644;2023-08-06T04:48:15;101684.03;;;13.46;65.29
64853;BME280;56050;55.558;-4.644;2023-08-06T04:50:48;101684.03;;;13.46;65.14
64853;BME280;56050;55.558;-4.644;2023-08-06T04:53:14;101696.41;;;13.47;64.95
64853;BME280;56050;55.558;-4.644;2023-08-06T04:55:39;101689.06;;;13.47;65.21
64853;BME280;56050;55.558;-4.644;2023-08-06T04:58:05;101698.38;;;13.50;65.15
64853;BME280;56050;55.558;-4.644;2023-08-06T05:00:31;101695.66;;;13.50;65.21
64853;BME280;56050;55.558;-4.644;2023-08-06T05:02:57;101694.91;;;13.53;65.10
64853;BME280;56050;55.558;-4.644;2023-08-06T05:05:23;101692.56;;;13.55;65.01
64853;BME280;56050;55.558;-4.644;2023-08-06T05:07:49;101696.81;;;13.56;65.18
64853;BME280;56050;55.558;-4.644;2023-08-06T05:10:15;101694.53;;;13.58;65.23
64853;BME280;56050;55.558;-4.644;2023-08-06T05:12:40;101690.28;;;13.61;65.21
64853;BME280;56050;55.558;-4.644;2023-08-06T05:15:06;101702.63;;;13.62;65.20
64853;BME280;56050;55.558;-4.644;2023-08-06T05:17:32;101693.00;;;13.64;65.13
64853;BME280;56050;55.558;-4.644;2023-08-06T05:19:57;101700.31;;;13.67;65.46
64853;BME280;56050;55.558;-4.644;2023-08-06T05:22:23;101696.09;;;13.70;65.32
64853;BME280;56050;55.558;-4.644;2023-08-06T05:24:48;101701.91;;;13.72;65.22
64853;BME280;56050;55.558;-4.644;2023-08-06T05:27:14;101702.28;;;13.74;65.22
64853;BME280;56050;55.558;-4.644;2023-08-06T05:29:39;101703.84;;;13.75;65.46
64853;BME280;56050;55.558;-4.644;2023-08-06T05:32:05;101704.22;;;13.77;65.33
64853;BME280;56050;55.558;-4.644;2023-08-06T05:34:30;101707.31;;;13.79;65.47
64853;BME280;56050;55.558;-4.644;2023-08-06T05:36:56;101699.97;;;13.79;65.39
64853;BME280;56050;55.558;-4.644;2023-08-06T05:39:21;101713.91;;;13.81;65.43
64853;BME280;56050;55.558;-4.644;2023-08-06T05:41:46;101713.91;;;13.81;65.48
64853;BME280;56050;55.558;-4.644;2023-08-06T05:44:12;101719.72;;;13.83;65.42
64853;BME280;56050;55.558;-4.644;2023-08-06T05:46:37;101718.19;;;13.86;65.39
64853;BME280;56050;55.558;-4.644;2023-08-06T05:49:03;101719.72;;;13.87;65.50
64853;BME280;56050;55.558;-4.644;2023-08-06T05:51:28;101718.19;;;13.89;65.52
64853;BME280;56050;55.558;-4.644;2023-08-06T05:53:54;101720.91;;;13.93;65.17
64853;BME280;56050;55.558;-4.644;2023-08-06T05:56:19;101718.19;;;13.93;65.53
64853;BME280;56050;55.558;-4.644;2023-08-06T05:58:45;101716.25;;;13.93;65.51
64853;BME280;56050;55.558;-4.644;2023-08-06T06:01:12;101720.13;;;13.92;65.40
64853;BME280;56050;55.558;-4.644;2023-08-06T06:03:38;101722.84;;;13.96;65.53
64853;BME280;56050;55.558;-4.644;2023-08-06T06:06:03;101717.81;;;13.98;65.52
64853;BME280;56050;55.558;-4.644;2023-08-06T06:08:29;101731.38;;;14.05;65.68
64853;BME280;56050;55.558;-4.644;2023-08-06T06:10:54;101729.06;;;14.10;65.50
64853;BME280;56050;55.558;-4.644;2023-08-06T06:13:20;101732.94;;;14.20;65.75
64853;BME280;56050;55.558;-4.644;2023-08-06T06:15:48;101730.66;;;14.33;65.64
64853;BME280;56050;55.558;-4.644;2023-08-06T06:18:13;101727.19;;;14.46;65.70
64853;BME280;56050;55.558;-4.644;2023-08-06T06:20:39;101722.91;;;14.63;65.66
64853;BME280;56050;55.558;-4.644;2023-08-06T06:23:04;101728.69;;;14.79;65.65
64853;BME280;56050;55.558;-4.644;2023-08-06T06:25:30;101734.84;;;14.97;65.48
64853;BME280;56050;55.558;-4.644;2023-08-06T06:27:55;101730.59;;;15.10;65.33
64853;BME280;56050;55.558;-4.644;2023-08-06T06:30:21;101729.00;;;15.20;65.28
64853;BME280;56050;55.558;-4.644;2023-08-06T06:32:47;101728.19;;;15.26;65.50
64853;BME280;56050;55.558;-4.644;2023-08-06T06:35:12;101732.03;;;15.36;65.57
64853;BME280;56050;55.558;-4.644;2023-08-06T06:37:37;101732.38;;;15.45;65.42
64853;BME280;56050;55.558;-4.644;2023-08-06T06:40:03;101736.25;;;15.55;65.43
64853;BME280;56050;55.558;-4.644;2023-08-06T06:42:29;101740.09;;;15.64;65.55
64853;BME280;56050;55.558;-4.644;2023-08-06T06:44:54;101735.78;;;15.74;65.25
64853;BME280;56050;55.558;-4.644;2023-08-06T06:47:20;101733.38;;;15.83;65.36
64853;BME280;56050;55.558;-4.644;2023-08-06T06:49:45;101741.88;;;15.92;65.06
64853;BME280;56050;55.558;-4.644;2023-08-06T06:52:11;101737.94;;;16.00;65.18
64853;BME280;56050;55.558;-4.644;2023-08-06T06:54:36;101745.66;;;16.12;64.85
64853;BME280;56050;55.558;-4.644;2023-08-06T06:57:02;101739.72;;;16.24;65.22
64853;BME280;56050;55.558;-4.644;2023-08-06T06:59:28;101743.13;;;16.35;64.77
64853;BME280;56050;55.558;-4.644;2023-08-06T07:01:53;101745.41;;;16.40;64.55
64853;BME280;56050;55.558;-4.644;2023-08-06T07:04:18;101755.09;;;16.49;64.48
64853;BME280;56050;55.558;-4.644;2023-08-06T07:06:44;101750.78;;;16.55;64.46
64853;BME280;56050;55.558;-4.644;2023-08-06T07:09:09;101753.09;;;16.60;64.57
64853;BME280;56050;55.558;-4.644;2023-08-06T07:11:35;101754.19;;;16.66;64.21
64853;BME280;56050;55.558;-4.644;2023-08-06T07:14:00;101756.84;;;16.73;64.04
64853;BME280;56050;55.558;-4.644;2023-08-06T07:16:26;101757.97;;;16.79;64.13
64853;BME280;56050;55.558;-4.644;2023-08-06T07:18:53;101768.00;;;16.85;64.05
64853;BME280;56050;55.558;-4.644;2023-08-06T07:21:18;101763.69;;;16.88;63.77
64853;BME280;56050;55.558;-4.644;2023-08-06T07:23:44;101766.84;;;16.86;63.64
64853;BME280;56050;55.558;-4.644;2023-08-06T07:26:10;101768.78;;;16.86;63.60
64853;BME280;56050;55.558;-4.644;2023-08-06T07:28:35;101765.63;;;16.91;63.66
64853;BME280;56050;55.558;-4.644;2023-08-06T07:31:02;101770.59;;;16.99;63.39
64853;BME280;56050;55.558;-4.644;2023-08-06T07:33:28;101772.06;;;17.08;63.17
64853;BME280;56050;55.558;-4.644;2023-08-06T07:35:53;101770.78;;;17.19;63.35
64853;BME280;56050;55.558;-4.644;2023-08-06T07:38:19;101765.56;;;17.32;62.92
64853;BME280;56050;55.558;-4.644;2023-08-06T07:40:45;101763.91;;;17.41;62.91
64853;BME280;56050;55.558;-4.644;2023-08-06T07:43:10;101761.84;;;17.52;62.84
64853;BME280;56050;55.558;-4.644;2023-08-06T07:45:36;101764.88;;;17.62;62.71
64853;BME280;56050;55.558;-4.644;2023-08-06T07:48:02;101760.13;;;17.66;62.44
64853;BME280;56050;55.558;-4.644;2023-08-06T07:50:27;101760.81;;;17.73;62.28
64853;BME280;56050;55.558;-4.644;2023-08-06T07:52:53;101763.81;;;17.82;62.42
64853;BME280;56050;55.558;-4.644;2023-08-06T07:55:18;101763.72;;;17.89;62.26
64853;BME280;56050;55.558;-4.644;2023-08-06T07:57:44;101760.47;;;17.98;62.05
64853;BME280;56050;55.558;-4.644;2023-08-06T08:00:09;101770.84;;;18.06;61.69
64853;BME280;56050;55.558;-4.644;2023-08-06T08:02:35;101767.63;;;18.15;61.94
64853;BME280;56050;55.558;-4.644;2023-08-06T08:05:01;101757.78;;;18.21;61.45
64853;BME280;56050;55.558;-4.644;2023-08-06T08:07:26;101763.97;;;18.25;61.54
64853;BME280;56050;55.558;-4.644;2023-08-06T08:09:54;101767.75;;;18.31;61.29
64853;BME280;56050;55.558;-4.644;2023-08-06T08:12:19;101761.56;;;18.31;61.13
64853;BME280;56050;55.558;-4.644;2023-08-06T08:14:45;101768.19;;;18.30;61.17
64853;BME280;56050;55.558;-4.644;2023-08-06T08:17:11;101771.69;;;18.30;61.22
64853;BME280;56050;55.558;-4.644;2023-08-06T08:19:37;101765.47;;;18.30;60.97
64853;BME280;56050;55.558;-4.644;2023-08-06T08:22:02;101774.78;;;18.32;60.94
64853;BME280;56050;55.558;-4.644;2023-08-06T08:24:29;101770.09;;;18.33;60.82
64853;BME280;56050;55.558;-4.644;2023-08-06T08:26:56;101766.22;;;18.30;60.71
64853;BME280;56050;55.558;-4.644;2023-08-06T08:29:21;101777.53;;;18.29;60.79
64853;BME280;56050;55.558;-4.644;2023-08-06T08:31:47;101770.13;;;18.29;61.27
64853;BME280;56050;55.558;-4.644;2023-08-06T08:34:15;101772.03;;;18.32;60.87
64853;BME280;56050;55.558;-4.644;2023-08-06T08:36:40;101768.13;;;18.33;60.92
64853;BME280;56050;55.558;-4.644;2023-08-06T08:39:06;101779.81;;;18.34;60.76
64853;BME280;56050;55.558;-4.644;2023-08-06T08:41:33;101773.22;;;18.31;60.71
64853;BME280;56050;55.558;-4.644;2023-08-06T08:43:59;101769.78;;;18.27;60.75
64853;BME280;56050;55.558;-4.644;2023-08-06T08:46:30;101776.06;;;18.24;60.79
64853;BME280;56050;55.558;-4.644;2023-08-06T08:48:58;101781.56;;;18.20;61.00
64853;BME280;56050;55.558;-4.644;2023-08-06T08:51:25;101776.56;;;18.15;61.03
64853;BME280;56050;55.558;-4.644;2023-08-06T08:53:53;101776.22;;;18.13;61.09
64853;BME280;56050;55.558;-4.644;2023-08-06T08:56:21;101780.91;;;18.13;60.86
64853;BME280;56050;55.558;-4.644;2023-08-06T08:58:47;101784.81;;;18.12;60.97
64853;BME280;56050;55.558;-4.644;2023-08-06T09:01:14;101788.31;;;18.12;60.80
64853;BME280;56050;55.558;-4.644;2023-08-06T09:03:41;101782.50;;;18.10;60.68
64853;BME280;56050;55.558;-4.644;2023-08-06T09:06:07;101783.75;;;18.06;60.68
64853;BME280;56050;55.558;-4.644;2023-08-06T09:08:39;101784.56;;;18.03;60.69
64853;BME280;56050;55.558;-4.644;2023-08-06T09:11:09;101781.88;;;17.99;61.01
64853;BME280;56050;55.558;-4.644;2023-08-06T09:13:37;101781.09;;;17.99;61.12
64853;BME280;56050;55.558;-4.644;2023-08-06T09:16:03;101787.03;;;17.94;61.01
64853;BME280;56050;55.558;-4.644;2023-08-06T09:18:29;101783.97;;;17.88;60.88
64853;BME280;56050;55.558;-4.644;2023-08-06T09:20:56;101782.38;;;17.91;61.05
64853;BME280;56050;55.558;-4.644;2023-08-06T09:23:28;101795.59;;;17.92;61.13
64853;BME280;56050;55.558;-4.644;2023-08-06T09:25:55;101788.19;;;17.93;60.92
64853;BME280;56050;55.558;-4.644;2023-08-06T09:28:21;101778.50;;;17.92;60.83
64853;BME280;56050;55.558;-4.644;2023-08-06T09:30:47;101782.38;;;17.91;61.06
64853;BME280;56050;55.558;-4.644;2023-08-06T09:33:18;101783.19;;;17.88;61.05
64853;BME280;56050;55.558;-4.644;2023-08-06T09:35:46;101780.81;;;17.90;60.77
64853;BME280;56050;55.558;-4.644;2023-08-06T09:38:11;101784.78;;;17.85;60.83
64853;BME280;56050;55.558;-4.644;2023-08-06T09:40:38;101780.59;;;17.81;60.85
64853;BME280;56050;55.558;-4.644;2023-08-06T09:43:03;101791.16;;;17.75;60.88
64853;BME280;56050;55.558;-4.644;2023-08-06T09:45:33;101795.16;;;17.67;60.61
64853;BME280;56050;55.558;-4.644;2023-08-06T09:48:09;101789.34;;;17.65;61.07
64853;BME280;56050;55.558;-4.644;2023-08-06T09:50:37;101790.16;;;17.62;60.90
64853;BME280;56050;55.558;-4.644;2023-08-06T09:53:07;101794.47;;;17.59;60.96
64853;BME280;56050;55.558;-4.644;2023-08-06T09:55:34;101796.44;;;17.59;60.78
64853;BME280;56050;55.558;-4.644;2023-08-06T09:57:59;101800.31;;;17.58;60.92
64853;BME280;56050;55.558;-4.644;2023-08-06T10:00:25;101797.97;;;17.60;60.91
64853;BME280;56050;55.558;-4.644;2023-08-06T10:02:52;101796.75;;;17.65;60.54
64853;BME280;56050;55.558;-4.644;2023-08-06T10:05:20;101799.84;;;17.67;60.57
64853;BME280;56050;55.558;-4.644;2023-08-06T10:07:46;101801.38;;;17.68;60.49
64853;BME280;56050;55.558;-4.644;2023-08-06T10:10:12;101799.03;;;17.70;60.45
64853;BME280;56050;55.558;-4.644;2023-08-06T10:12:41;101805.56;;;17.76;60.41
64853;BME280;56050;55.558;-4.644;2023-08-06T10:15:14;101805.81;;;17.85;60.38
64853;BME280;56050;55.558;-4.644;2023-08-06T10:17:41;101806.47;;;17.96;60.26
64853;BME280;56050;55.558;-4.644;2023-08-06T10:20:08;101805.97;;;18.04;60.38
64853;BME280;56050;55.558;-4.644;2023-08-06T10:22:34;101805.91;;;18.08;59.96
64853;BME280;56050;55.558;-4.644;2023-08-06T10:25:00;101810.59;;;18.07;60.32
64853;BME280;56050;55.558;-4.644;2023-08-06T10:30:20;101808.00;;;17.97;60.18
64853;BME280;56050;55.558;-4.644;2023-08-06T10:32:52;101806.50;;;17.92;60.24
64853;BME280;56050;55.558;-4.644;2023-08-06T10:35:37;101805.38;;;17.90;60.69
64853;BME280;56050;55.558;-4.644;2023-08-06T10:38:11;101804.19;;;17.91;60.53
64853;BME280;56050;55.558;-4.644;2023-08-06T10:43:37;101808.91;;;17.87;60.75
64853;BME280;56050;55.558;-4.644;2023-08-06T10:46:11;101810.06;;;17.89;60.73
64853;BME280;56050;55.558;-4.644;2023-08-06T10:51:02;101810.78;;;17.93;60.93
64853;BME280;56050;55.558;-4.644;2023-08-06T10:53:28;101803.03;;;17.92;60.87
64853;BME280;56050;55.558;-4.644;2023-08-06T10:55:54;101804.56;;;17.93;61.04
64853;BME280;56050;55.558;-4.644;2023-08-06T10:58:19;101817.00;;;17.94;60.89
64853;BME280;56050;55.558;-4.644;2023-08-06T11:00:45;101807.69;;;17.91;60.81
64853;BME280;56050;55.558;-4.644;2023-08-06T11:03:11;101806.94;;;17.91;61.02
64853;BME280;56050;55.558;-4.644;2023-08-06T11:05:36;101804.94;;;17.95;61.15
64853;BME280;56050;55.558;-4.644;2023-08-06T11:08:02;101805.66;;;17.99;60.97
64853;BME280;56050;55.558;-4.644;2023-08-06T11:10:28;101797.78;;;18.04;60.90
64853;BME280;56050;55.558;-4.644;2023-08-06T11:12:53;101800.41;;;18.11;61.06
64853;BME280;56050;55.558;-4.644;2023-08-06T11:15:20;101800.31;;;18.18;60.66
64853;BME280;56050;55.558;-4.644;2023-08-06T11:17:46;101804.13;;;18.25;60.68
64853;BME280;56050;55.558;-4.644;2023-08-06T11:20:12;101811.88;;;18.26;60.55
64853;BME280;56050;55.558;-4.644;2023-08-06T11:22:37;101810.41;;;18.22;60.34
64853;BME280;56050;55.558;-4.644;2023-08-06T11:25:05;101802.22;;;18.22;60.42
64853;BME280;56050;55.558;-4.644;2023-08-06T11:27:31;101810.41;;;18.22;60.41
64853;BME280;56050;55.558;-4.644;2023-08-06T11:29:56;101816.22;;;18.24;60.24
64853;BME280;56050;55.558;-4.644;2023-08-06T11:32:22;101808.03;;;18.24;60.17
64853;BME280;56050;55.558;-4.644;2023-08-06T11:34:47;101814.22;;;18.28;60.35
64853;BME280;56050;55.558;-4.644;2023-08-06T11:37:13;101811.00;;;18.33;60.40
64853;BME280;56050;55.558;-4.644;2023-08-06T11:39:46;101810.59;;;18.34;60.14
64853;BME280;56050;55.558;-4.644;2023-08-06T11:42:11;101815.22;;;18.37;59.75
64853;BME280;56050;55.558;-4.644;2023-08-06T11:44:37;101808.25;;;18.36;59.57
64853;BME280;56050;55.558;-4.644;2023-08-06T11:47:04;101812.16;;;18.35;59.84
64853;BME280;56050;55.558;-4.644;2023-08-06T11:49:49;101812.44;;;18.41;59.83
64853;BME280;56050;55.558;-4.644;2023-08-06T11:52:25;101815.09;;;18.48;60.01
64853;BME280;56050;55.558;-4.644;2023-08-06T11:55:07;101806.91;;;18.48;59.21
64853;BME280;56050;55.558;-4.644;2023-08-06T11:57:36;101807.28;;;18.46;59.40
64853;BME280;56050;55.558;-4.644;2023-08-06T12:00:04;101811.97;;;18.49;59.45
64853;BME280;56050;55.558;-4.644;2023-08-06T12:02:32;101810.72;;;18.54;59.65
64853;BME280;56050;55.558;-4.644;2023-08-06T12:05:12;101809.88;;;18.57;58.90
64853;BME280;56050;55.558;-4.644;2023-08-06T12:07:41;101804.03;;;18.58;58.92
64853;BME280;56050;55.558;-4.644;2023-08-06T12:10:07;101809.84;;;18.60;58.85
64853;BME280;56050;55.558;-4.644;2023-08-06T12:12:34;101816.38;;;18.66;59.21
64853;BME280;56050;55.558;-4.644;2023-08-06T12:14:59;101813.03;;;18.78;58.81
64853;BME280;56050;55.558;-4.644;2023-08-06T12:17:25;101815.22;;;18.87;58.77
64853;BME280;56050;55.558;-4.644;2023-08-06T12:19:51;101814.41;;;18.90;57.79
64853;BME280;56050;55.558;-4.644;2023-08-06T12:22:16;101801.56;;;18.87;57.55
64853;BME280;56050;55.558;-4.644;2023-08-06T12:24:42;101817.28;;;18.83;57.70
64853;BME280;56050;55.558;-4.644;2023-08-06T12:27:09;101813.75;;;18.83;57.56
64853;BME280;56050;55.558;-4.644;2023-08-06T12:29:34;101812.25;;;18.78;57.46
64853;BME280;56050;55.558;-4.644;2023-08-06T12:32:01;101806.44;;;18.76;57.74
64853;BME280;56050;55.558;-4.644;2023-08-06T12:34:27;101801.34;;;18.78;57.72
64853;BME280;56050;55.558;-4.644;2023-08-06T12:36:52;101793.53;;;18.80;57.86
64853;BME280;56050;55.558;-4.644;2023-08-06T12:39:18;101805.22;;;18.81;57.76
64853;BME280;56050;55.558;-4.644;2023-08-06T12:41:43;101796.94;;;18.84;58.11
64853;BME280;56050;55.558;-4.644;2023-08-06T12:44:11;101797.31;;;18.86;58.16
64853;BME280;56050;55.558;-4.644;2023-08-06T12:46:37;101801.56;;;18.87;57.85
64853;BME280;56050;55.558;-4.644;2023-08-06T12:49:02;101808.16;;;18.90;58.19
64853;BME280;56050;55.558;-4.644;2023-08-06T12:51:28;101795.63;;;18.92;58.01
64853;BME280;56050;55.558;-4.644;2023-08-06T12:53:53;101793.69;;;18.93;57.97
64853;BME280;56050;55.558;-4.644;2023-08-06T12:56:18;101802.22;;;18.95;58.33